createdAt,value
2023-02-21T00:02:36.557Z,7.00
2023-02-21T00:05:21.603Z,7.10
2023-02-21T00:08:07.061Z,7.10
2023-02-21T00:10:52.155Z,7.00
2023-02-21T00:13:37.475Z,7.00
2023-02-21T00:16:22.692Z,7.10
2023-02-21T00:19:07.891Z,7.10
2023-02-21T00:21:53.151Z,7.00
2023-02-21T00:24:38.430Z,7.00
2023-02-21T00:27:23.922Z,7.00
2023-02-21T00:30:09.665Z,7.00
2023-02-21T00:32:55.039Z,7.00
2023-02-21T00:35:41.160Z,7.00
2023-02-21T00:38:26.738Z,7.00
2023-02-21T00:41:12.343Z,7.00
2023-02-21T00:43:57.876Z,7.00
2023-02-21T00:46:43.221Z,7.00
2023-02-21T00:49:28.366Z,7.00
2023-02-21T00:52:13.432Z,7.00
2023-02-21T00:54:58.586Z,7.00
2023-02-21T00:57:43.955Z,6.90
2023-02-21T01:00:28.971Z,6.90
2023-02-21T01:03:14.241Z,6.90
2023-02-21T01:05:59.280Z,6.90
2023-02-21T01:08:44.425Z,6.90
2023-02-21T01:11:29.562Z,6.90
2023-02-21T01:14:14.859Z,6.80
2023-02-21T01:17:12.385Z,6.80
2023-02-21T01:19:58.740Z,6.80
2023-02-21T01:22:43.859Z,6.80
2023-02-21T01:25:28.853Z,6.80
2023-02-21T01:28:14.091Z,6.90
2023-02-21T01:30:59.069Z,6.90
2023-02-21T01:33:44.428Z,6.90
2023-02-21T01:36:29.798Z,6.80
2023-02-21T01:39:15.099Z,6.80
2023-02-21T01:42:00.467Z,6.70
2023-02-21T01:44:45.814Z,6.70
2023-02-21T01:47:30.973Z,6.70
2023-02-21T01:50:15.921Z,6.70
2023-02-21T01:53:01.001Z,6.70
2023-02-21T01:55:45.965Z,6.70
2023-02-21T01:58:31.336Z,6.70
2023-02-21T02:01:16.812Z,6.70
2023-02-21T02:04:02.125Z,6.70
2023-02-21T02:06:47.263Z,6.70
2023-02-21T02:09:32.271Z,6.70
2023-02-21T02:12:17.456Z,6.70
2023-02-21T02:14:43.988Z,6.70
2023-02-21T02:17:10.468Z,6.70
2023-02-21T02:19:37.024Z,6.70
2023-02-21T02:22:03.560Z,6.70
2023-02-21T02:24:30.058Z,6.70
2023-02-21T02:26:56.859Z,6.70
2023-02-21T02:29:25.374Z,6.70
2023-02-21T02:31:51.967Z,6.70
2023-02-21T02:34:18.532Z,6.70
2023-02-21T02:36:45.053Z,6.70
2023-02-21T02:39:11.742Z,6.70
2023-02-21T02:41:38.204Z,6.70
2023-02-21T02:44:04.688Z,6.70
2023-02-21T02:46:35.186Z,6.80
2023-02-21T02:49:01.909Z,6.80
2023-02-21T02:51:28.453Z,6.80
2023-02-21T02:53:54.974Z,6.80
2023-02-21T02:56:23.614Z,6.70
2023-02-21T02:58:50.181Z,6.70
2023-02-21T03:01:16.867Z,6.70
2023-02-21T03:03:43.528Z,6.70
2023-02-21T03:06:10.034Z,6.60
2023-02-21T03:08:36.831Z,6.60
2023-02-21T03:11:03.306Z,6.60
2023-02-21T03:13:29.824Z,6.50
2023-02-21T03:15:56.375Z,6.50
2023-02-21T03:18:22.867Z,6.50
2023-02-21T03:20:49.354Z,6.50
2023-02-21T03:23:15.878Z,6.50
2023-02-21T03:25:42.365Z,6.60
2023-02-21T03:28:08.933Z,6.60
2023-02-21T03:30:35.476Z,6.60
2023-02-21T03:33:02.226Z,6.60
2023-02-21T03:35:29.657Z,6.60
2023-02-21T03:37:56.132Z,6.60
2023-02-21T03:40:23.739Z,6.60
2023-02-21T03:42:50.288Z,6.60
2023-02-21T03:45:16.845Z,6.60
2023-02-21T03:47:43.327Z,6.60
2023-02-21T03:50:09.810Z,6.60
2023-02-21T03:52:36.330Z,6.50
2023-02-21T03:55:02.879Z,6.50
2023-02-21T03:57:29.349Z,6.50
2023-02-21T03:59:55.894Z,6.50
2023-02-21T04:02:22.395Z,6.50
2023-02-21T04:04:49.098Z,6.50
2023-02-21T04:07:15.649Z,6.50
2023-02-21T04:09:42.754Z,6.50
2023-02-21T04:12:09.270Z,6.50
2023-02-21T04:14:35.801Z,6.50
2023-02-21T04:17:02.330Z,6.50
2023-02-21T04:19:28.899Z,6.50
2023-02-21T04:21:56.444Z,6.40
2023-02-21T04:24:22.995Z,6.50
2023-02-21T04:26:49.499Z,6.50
2023-02-21T04:29:16.038Z,6.50
2023-02-21T04:31:42.639Z,6.50
2023-02-21T04:34:12.166Z,6.50
2023-02-21T04:36:38.814Z,6.50
2023-02-21T04:39:05.310Z,6.60
2023-02-21T04:41:31.856Z,6.60
2023-02-21T04:43:58.462Z,6.60
2023-02-21T04:46:24.978Z,6.60
2023-02-21T04:48:51.567Z,6.60
2023-02-21T04:51:18.566Z,6.60
2023-02-21T04:53:45.599Z,6.70
2023-02-21T04:56:12.595Z,6.70
2023-02-21T04:58:45.264Z,6.70
2023-02-21T05:01:12.997Z,6.60
2023-02-21T05:03:39.728Z,6.70
2023-02-21T05:06:06.256Z,6.60
2023-02-21T05:08:32.754Z,6.70
2023-02-21T05:10:59.218Z,6.70
2023-02-21T05:13:28.762Z,6.70
2023-02-21T05:15:55.306Z,6.70
2023-02-21T05:18:28.624Z,6.80
2023-02-21T05:20:55.452Z,6.80
2023-02-21T05:23:35.537Z,6.80
2023-02-21T05:26:02.252Z,6.80
2023-02-21T05:28:28.767Z,6.80
2023-02-21T05:30:55.402Z,6.80
2023-02-21T05:33:22.012Z,6.80
2023-02-21T05:35:48.615Z,6.80
2023-02-21T05:38:15.100Z,6.80
2023-02-21T05:40:41.640Z,6.80
2023-02-21T05:43:08.148Z,6.80
2023-02-21T05:45:34.741Z,6.80
2023-02-21T05:48:02.399Z,6.70
2023-02-21T05:50:28.904Z,6.70
2023-02-21T05:52:55.412Z,6.70
2023-02-21T05:55:21.920Z,6.70
2023-02-21T05:57:48.394Z,6.70
2023-02-21T06:00:14.892Z,6.70
2023-02-21T06:02:41.374Z,6.60
2023-02-21T06:05:07.907Z,6.70
2023-02-21T06:07:34.638Z,6.60
2023-02-21T06:10:01.115Z,6.60
2023-02-21T06:12:27.602Z,6.50
2023-02-21T06:14:54.129Z,6.50
2023-02-21T06:17:20.649Z,6.50
2023-02-21T06:19:47.171Z,6.50
2023-02-21T06:22:13.978Z,6.50
2023-02-21T06:24:40.514Z,6.50
2023-02-21T06:27:07.002Z,6.50
2023-02-21T06:29:33.626Z,6.50
2023-02-21T06:32:00.238Z,6.50
2023-02-21T06:34:26.801Z,6.50
2023-02-21T06:36:53.315Z,6.50
2023-02-21T06:39:19.810Z,6.50
2023-02-21T06:41:46.399Z,6.50
2023-02-21T06:44:12.944Z,6.50
2023-02-21T06:46:39.566Z,6.50
2023-02-21T06:49:06.108Z,6.50
2023-02-21T06:51:32.704Z,6.60
2023-02-21T06:54:00.152Z,6.60
2023-02-21T06:56:27.147Z,6.60
2023-02-21T06:58:56.019Z,6.70
2023-02-21T07:01:23.794Z,6.70
2023-02-21T07:03:50.321Z,6.70
2023-02-21T07:06:16.937Z,6.80
2023-02-21T07:08:43.420Z,6.80
2023-02-21T07:11:09.900Z,6.80
2023-02-21T07:13:36.449Z,6.90
2023-02-21T07:16:03.048Z,6.90
2023-02-21T07:18:29.600Z,6.90
2023-02-21T07:20:56.113Z,6.90
2023-02-21T07:23:22.597Z,6.90
2023-02-21T07:25:49.150Z,6.90
2023-02-21T07:28:15.685Z,6.90
2023-02-21T07:30:42.299Z,6.80
2023-02-21T07:33:08.882Z,6.80
2023-02-21T07:35:35.446Z,6.80
2023-02-21T07:38:01.932Z,6.90
2023-02-21T07:40:28.442Z,6.90
2023-02-21T07:42:55.218Z,6.90
2023-02-21T07:45:21.820Z,7.00
2023-02-21T07:47:50.905Z,7.00
2023-02-21T07:50:17.489Z,7.00
2023-02-21T07:52:43.971Z,7.00
2023-02-21T07:55:12.286Z,7.00
2023-02-21T07:57:38.790Z,7.00
2023-02-21T08:00:05.335Z,7.00
2023-02-21T08:02:31.900Z,7.00
2023-02-21T08:04:58.408Z,7.00
2023-02-21T08:07:25.218Z,7.00
2023-02-21T08:09:51.705Z,7.10
2023-02-21T08:12:18.240Z,7.10
2023-02-21T08:14:44.719Z,7.10
2023-02-21T08:17:11.255Z,7.10
2023-02-21T08:19:37.858Z,7.10
2023-02-21T08:22:04.478Z,7.10
2023-02-21T08:24:30.975Z,7.10
2023-02-21T08:26:57.547Z,7.10
2023-02-21T08:29:24.174Z,7.10
2023-02-21T08:31:50.780Z,7.20
2023-02-21T08:34:17.305Z,7.20
2023-02-21T08:36:43.904Z,7.20
2023-02-21T08:39:10.618Z,7.20
2023-02-21T08:41:37.209Z,7.20
2023-02-21T08:44:03.727Z,7.30
2023-02-21T08:46:30.321Z,7.30
2023-02-21T08:48:56.954Z,7.40
2023-02-21T08:51:23.454Z,7.40
2023-02-21T08:53:49.943Z,7.40
2023-02-21T08:56:16.527Z,7.40
2023-02-21T08:58:43.082Z,7.40
2023-02-21T09:01:10.678Z,7.40
2023-02-21T09:03:37.201Z,7.40
2023-02-21T09:06:03.984Z,7.50
2023-02-21T09:08:33.949Z,7.50
2023-02-21T09:11:01.215Z,7.40
2023-02-21T09:13:27.773Z,7.40
2023-02-21T09:15:56.852Z,7.40
2023-02-21T09:18:23.353Z,7.30
2023-02-21T09:20:52.046Z,7.30
2023-02-21T09:23:21.604Z,7.30
2023-02-21T09:25:48.094Z,7.30
2023-02-21T09:28:14.614Z,7.30
2023-02-21T09:30:41.159Z,7.30
2023-02-21T09:33:07.748Z,7.30
2023-02-21T09:35:34.226Z,7.30
2023-02-21T09:38:00.760Z,7.30
2023-02-21T09:40:27.270Z,7.40
2023-02-21T09:42:53.782Z,7.40
2023-02-21T09:45:22.190Z,7.40
2023-02-21T09:47:48.725Z,7.50
2023-02-21T09:50:15.269Z,7.50
2023-02-21T09:52:42.224Z,7.50
2023-02-21T09:55:08.799Z,7.50
2023-02-21T09:57:35.604Z,7.60
2023-02-21T10:00:02.127Z,7.60
2023-02-21T10:02:28.617Z,7.70
2023-02-21T10:04:55.253Z,7.70
2023-02-21T10:07:21.962Z,7.70
2023-02-21T10:09:49.074Z,7.70
2023-02-21T10:12:15.588Z,7.70
2023-02-21T10:14:42.211Z,7.70
2023-02-21T10:17:08.703Z,7.60
2023-02-21T10:19:35.190Z,7.70
2023-02-21T10:22:01.812Z,7.60
2023-02-21T10:24:28.365Z,7.60
2023-02-21T10:26:54.894Z,7.60
2023-02-21T10:29:21.426Z,7.60
2023-02-21T10:31:48.421Z,7.60
2023-02-21T10:34:15.015Z,7.60
2023-02-21T10:36:41.507Z,7.60
2023-02-21T10:39:08.021Z,7.70
2023-02-21T10:41:34.508Z,7.60
2023-02-21T10:44:01.023Z,7.60
2023-02-21T10:46:27.584Z,7.50
2023-02-21T10:48:54.243Z,7.50
2023-02-21T10:51:20.730Z,7.50
2023-02-21T10:53:47.336Z,7.50
2023-02-21T10:56:14.094Z,7.50
2023-02-21T10:58:40.709Z,7.60
2023-02-21T11:01:07.217Z,7.60
2023-02-21T11:03:33.746Z,7.60
2023-02-21T11:06:01.782Z,7.70
2023-02-21T11:08:28.343Z,7.70
2023-02-21T11:10:54.985Z,7.70
2023-02-21T11:13:21.570Z,7.70
2023-02-21T11:15:48.192Z,7.60
2023-02-21T11:18:14.714Z,7.60
2023-02-21T11:20:41.296Z,7.50
2023-02-21T11:23:09.842Z,7.60
2023-02-21T11:25:36.335Z,7.60
2023-02-21T11:28:02.937Z,7.60
2023-02-21T11:30:29.545Z,7.50
2023-02-21T11:32:57.167Z,7.50
2023-02-21T11:35:23.899Z,7.50
2023-02-21T11:37:50.435Z,7.50
2023-02-21T11:40:16.974Z,7.50
2023-02-21T11:42:43.524Z,7.50
2023-02-21T11:45:10.019Z,7.50
2023-02-21T11:47:36.572Z,7.50
2023-02-21T11:50:03.061Z,7.60
2023-02-21T11:52:29.596Z,7.60
2023-02-21T11:54:56.153Z,7.60
2023-02-21T11:57:22.636Z,7.50
2023-02-21T11:59:49.135Z,7.60
2023-02-21T12:02:15.705Z,7.60
2023-02-21T12:04:42.217Z,7.60
2023-02-21T12:07:08.788Z,7.60
2023-02-21T12:09:35.552Z,7.60
2023-02-21T12:12:02.632Z,7.60
2023-02-21T12:14:29.176Z,7.70
2023-02-21T12:16:55.660Z,7.70
2023-02-21T12:19:22.364Z,7.80
2023-02-21T12:21:48.874Z,7.80
2023-02-21T12:24:15.382Z,7.90
2023-02-21T12:26:41.859Z,7.90
2023-02-21T12:29:08.386Z,7.90
2023-02-21T12:31:34.985Z,7.90
2023-02-21T12:34:01.596Z,7.90
2023-02-21T12:36:28.076Z,7.90
2023-02-21T12:38:55.069Z,8.00
2023-02-21T12:41:21.583Z,8.00
2023-02-21T12:43:48.566Z,8.00
2023-02-21T12:46:15.107Z,8.00
2023-02-21T12:48:41.644Z,8.00
2023-02-21T12:51:08.210Z,8.00
2023-02-21T12:53:34.740Z,8.10
2023-02-21T12:56:01.334Z,8.10
2023-02-21T12:58:28.228Z,8.20
2023-02-21T13:00:54.798Z,8.30
2023-02-21T13:03:21.469Z,8.40
2023-02-21T13:05:48.020Z,8.60
2023-02-21T13:08:14.513Z,8.70
2023-02-21T13:10:41.026Z,8.80
2023-02-21T13:13:08.490Z,8.80
2023-02-21T13:15:34.973Z,8.80
2023-02-21T13:18:01.541Z,8.80
2023-02-21T13:20:28.061Z,9.00
2023-02-21T13:22:54.557Z,9.00
2023-02-21T13:25:21.068Z,9.00
2023-02-21T13:27:47.554Z,9.00
2023-02-21T13:30:14.249Z,9.00
2023-02-21T13:32:40.762Z,9.00
2023-02-21T13:35:10.725Z,9.00
2023-02-21T13:37:40.276Z,9.10
2023-02-21T13:40:09.892Z,9.00
2023-02-21T13:42:36.417Z,8.90
2023-02-21T13:45:02.913Z,8.80
2023-02-21T13:47:29.398Z,8.80
2023-02-21T13:49:55.980Z,8.80
2023-02-21T13:52:22.524Z,8.80
2023-02-21T13:54:49.026Z,8.80
2023-02-21T13:57:17.823Z,8.90
2023-02-21T13:59:44.349Z,8.80
2023-02-21T14:02:10.842Z,8.90
2023-02-21T14:04:37.411Z,8.80
2023-02-21T14:07:03.954Z,8.80
2023-02-21T14:09:30.441Z,8.90
2023-02-21T14:11:57.028Z,8.90
2023-02-21T14:14:23.532Z,9.00
2023-02-21T14:16:50.148Z,8.90
2023-02-21T14:19:16.709Z,9.00
2023-02-21T14:21:43.233Z,9.00
2023-02-21T14:24:09.727Z,9.00
2023-02-21T14:26:36.440Z,9.00
2023-02-21T14:29:02.987Z,8.90
2023-02-21T14:31:29.559Z,8.80
2023-02-21T14:33:56.075Z,8.80
2023-02-21T14:36:23.056Z,8.80
2023-02-21T14:38:50.305Z,8.70
2023-02-21T14:41:17.069Z,8.70
2023-02-21T14:43:43.929Z,8.70
2023-02-21T14:46:10.514Z,8.70
2023-02-21T14:48:37.069Z,8.70
2023-02-21T14:51:03.544Z,8.70
2023-02-21T14:53:30.044Z,8.70
2023-02-21T14:55:56.566Z,8.80
2023-02-21T14:58:23.099Z,8.80
2023-02-21T15:00:49.649Z,8.80
2023-02-21T15:03:16.137Z,8.90
2023-02-21T15:05:42.621Z,8.90
2023-02-21T15:08:09.229Z,9.00
2023-02-21T15:10:35.754Z,9.00
2023-02-21T15:13:02.358Z,9.00
2023-02-21T15:15:28.872Z,9.00
2023-02-21T15:17:55.436Z,9.10
2023-02-21T15:20:22.148Z,9.10
2023-02-21T15:22:49.491Z,9.10
2023-02-21T15:25:16.052Z,9.10
2023-02-21T15:27:42.573Z,9.20
2023-02-21T15:30:09.806Z,9.20
2023-02-21T15:32:36.386Z,9.20
2023-02-21T15:35:02.870Z,9.20
2023-02-21T15:37:32.609Z,9.30
2023-02-21T15:39:59.241Z,9.20
2023-02-21T15:42:25.897Z,9.20
2023-02-21T15:44:52.414Z,9.20
2023-02-21T15:47:19.009Z,9.20
2023-02-21T15:49:45.577Z,9.10
2023-02-21T15:52:12.056Z,9.20
2023-02-21T15:54:39.392Z,9.10
2023-02-21T15:57:09.264Z,9.20
2023-02-21T15:59:36.222Z,9.20
2023-02-21T16:02:02.715Z,9.20
2023-02-21T16:04:29.207Z,9.20
2023-02-21T16:06:55.940Z,9.20
2023-02-21T16:09:24.387Z,9.20
2023-02-21T16:11:51.145Z,9.20
2023-02-21T16:14:17.638Z,9.30
2023-02-21T16:16:44.149Z,9.30
2023-02-21T16:19:11.336Z,9.30
2023-02-21T16:21:39.402Z,9.20
2023-02-21T16:24:05.878Z,9.20
2023-02-21T16:26:32.346Z,9.20
2023-02-21T16:28:59.854Z,9.20
2023-02-21T16:31:26.424Z,9.20
2023-02-21T16:33:53.057Z,9.10
2023-02-21T16:36:19.531Z,9.10
2023-02-21T16:38:46.058Z,9.10
2023-02-21T16:41:14.162Z,9.10
2023-02-21T16:43:42.221Z,9.10
2023-02-21T16:46:08.774Z,9.00
2023-02-21T16:48:35.325Z,9.00
2023-02-21T16:51:04.976Z,9.00
2023-02-21T16:53:31.466Z,9.00
2023-02-21T16:55:57.969Z,9.00
2023-02-21T16:58:26.148Z,9.00
2023-02-21T17:00:52.682Z,8.90
2023-02-21T17:03:19.414Z,8.90
2023-02-21T17:05:45.906Z,8.90
2023-02-21T17:08:12.489Z,8.90
2023-02-21T17:10:38.999Z,8.80
2023-02-21T17:13:05.578Z,8.80
2023-02-21T17:15:32.196Z,8.80
2023-02-21T17:17:58.674Z,8.80
2023-02-21T17:20:25.215Z,8.80
2023-02-21T17:22:51.691Z,8.70
2023-02-21T17:25:18.296Z,8.70
2023-02-21T17:27:44.806Z,8.60
2023-02-21T17:30:18.814Z,8.60
2023-02-21T17:32:48.472Z,8.70
2023-02-21T17:35:15.313Z,8.60
2023-02-21T17:37:42.025Z,8.60
2023-02-21T17:40:08.519Z,8.50
2023-02-21T17:42:34.988Z,8.50
2023-02-21T17:45:02.217Z,8.50
2023-02-21T17:47:28.784Z,8.40
2023-02-21T17:49:57.301Z,8.40
2023-02-21T17:52:23.870Z,8.40
2023-02-21T17:54:50.467Z,8.40
2023-02-21T17:57:17.062Z,8.40
2023-02-21T17:59:45.239Z,8.30
2023-02-21T18:02:13.130Z,8.30
2023-02-21T18:04:39.671Z,8.30
2023-02-21T18:07:06.172Z,8.30
2023-02-21T18:09:32.793Z,8.30
2023-02-21T18:11:59.260Z,8.30
2023-02-21T18:14:26.094Z,8.20
2023-02-21T18:16:52.745Z,8.20
2023-02-21T18:19:19.253Z,8.20
2023-02-21T18:21:45.815Z,8.20
2023-02-21T18:24:12.345Z,8.10
2023-02-21T18:26:38.972Z,8.10
2023-02-21T18:29:05.454Z,8.10
2023-02-21T18:31:32.142Z,8.10
2023-02-21T18:33:58.718Z,8.10
2023-02-21T18:36:26.338Z,8.10
2023-02-21T18:38:52.828Z,8.10
2023-02-21T18:41:20.303Z,8.10
2023-02-21T18:43:46.920Z,8.00
2023-02-21T18:46:13.455Z,8.10
2023-02-21T18:48:39.920Z,8.00
2023-02-21T18:51:06.451Z,8.00
2023-02-21T18:53:32.972Z,8.00
2023-02-21T18:55:59.636Z,8.00
2023-02-21T18:58:26.169Z,8.00
2023-02-21T19:00:52.872Z,8.00
2023-02-21T19:03:19.497Z,8.00
2023-02-21T19:05:45.982Z,7.90
2023-02-21T19:08:12.491Z,7.90
2023-02-21T19:10:39.041Z,7.80
2023-02-21T19:13:05.682Z,7.80
2023-02-21T19:15:32.234Z,7.80
2023-02-21T19:17:58.762Z,7.70
2023-02-21T19:20:25.367Z,7.70
2023-02-21T19:22:52.353Z,7.80
2023-02-21T19:25:18.895Z,7.80
2023-02-21T19:27:45.457Z,7.80
2023-02-21T19:30:11.948Z,7.80
2023-02-21T19:32:38.480Z,7.70
2023-02-21T19:35:05.008Z,7.70
2023-02-21T19:37:31.484Z,7.70
2023-02-21T19:39:58.028Z,7.70
2023-02-21T19:42:24.542Z,7.70
2023-02-21T19:44:51.016Z,7.60
2023-02-21T19:47:17.540Z,7.60
2023-02-21T19:49:45.954Z,7.50
2023-02-21T19:52:12.498Z,7.40
2023-02-21T19:54:38.993Z,7.30
2023-02-21T19:57:05.494Z,7.40
2023-02-21T19:59:33.784Z,7.30
2023-02-21T20:02:00.835Z,7.20
2023-02-21T20:04:28.644Z,7.20
2023-02-21T20:06:55.195Z,7.20
2023-02-21T20:09:21.673Z,7.20
2023-02-21T20:11:48.200Z,7.20
2023-02-21T20:14:17.389Z,7.20
2023-02-21T20:16:43.941Z,7.20
2023-02-21T20:19:10.708Z,7.20
2023-02-21T20:21:37.196Z,7.20
2023-02-21T20:24:03.710Z,7.10
2023-02-21T20:26:30.219Z,7.10
2023-02-21T20:28:56.749Z,7.10
2023-02-21T20:31:26.430Z,7.10
2023-02-21T20:33:52.945Z,7.10
2023-02-21T20:36:19.537Z,7.20
2023-02-21T20:38:46.002Z,7.20
2023-02-21T20:41:13.752Z,7.20
2023-02-21T20:43:40.430Z,7.30
2023-02-21T20:46:07.058Z,7.40
2023-02-21T20:48:33.632Z,7.40
2023-02-21T20:51:06.228Z,7.50
2023-02-21T20:53:32.745Z,7.50
2023-02-21T20:55:59.227Z,7.50
2023-02-21T20:58:25.710Z,7.50
2023-02-21T21:00:53.200Z,7.60
2023-02-21T21:03:19.700Z,7.50
2023-02-21T21:05:47.984Z,7.50
2023-02-21T21:08:14.551Z,7.50
2023-02-21T21:10:42.180Z,7.50
2023-02-21T21:13:08.711Z,7.50
2023-02-21T21:15:35.219Z,7.50
2023-02-21T21:18:01.923Z,7.40
2023-02-21T21:20:28.452Z,7.40
2023-02-21T21:22:54.992Z,7.30
2023-02-21T21:25:22.533Z,7.30
2023-02-21T21:27:49.328Z,7.20
2023-02-21T21:30:18.243Z,7.20
2023-02-21T21:32:45.200Z,7.10
2023-02-21T21:35:14.604Z,7.00
2023-02-21T21:37:41.268Z,7.00
2023-02-21T21:40:17.044Z,6.90
2023-02-21T21:42:43.710Z,6.90
2023-02-21T21:45:10.172Z,6.80
2023-02-21T21:47:37.165Z,6.80
2023-02-21T21:50:04.906Z,6.80
2023-02-21T21:52:31.416Z,6.80
2023-02-21T21:54:57.902Z,6.80
2023-02-21T21:57:27.148Z,6.80
2023-02-21T21:59:53.917Z,6.80
2023-02-21T22:02:20.452Z,6.80
2023-02-21T22:04:48.013Z,6.90
2023-02-21T22:07:15.076Z,6.90
2023-02-21T22:09:41.610Z,6.80
2023-02-21T22:12:08.155Z,6.80
2023-02-21T22:14:35.071Z,6.80
2023-02-21T22:17:01.577Z,6.80
2023-02-21T22:19:28.104Z,6.70
2023-02-21T22:21:55.078Z,6.80
2023-02-21T22:24:22.364Z,6.80
2023-02-21T22:26:48.954Z,6.80
2023-02-21T22:29:15.562Z,6.80
2023-02-21T22:31:42.123Z,6.80
2023-02-21T22:34:09.015Z,6.80
2023-02-21T22:36:36.867Z,6.80
2023-02-21T22:39:09.269Z,6.80
2023-02-21T22:41:35.788Z,6.80
2023-02-21T22:44:02.272Z,6.80
2023-02-21T22:46:28.792Z,6.80
2023-02-21T22:48:55.322Z,6.80
2023-02-21T22:51:21.864Z,6.80
2023-02-21T22:53:50.129Z,6.70
2023-02-21T22:56:17.161Z,6.60
2023-02-21T22:58:43.695Z,6.60
2023-02-21T23:01:10.164Z,6.60
2023-02-21T23:03:37.796Z,6.50
2023-02-21T23:06:06.770Z,6.50
2023-02-21T23:08:35.213Z,6.50
2023-02-21T23:11:01.689Z,6.40
2023-02-21T23:13:28.182Z,6.40
2023-02-21T23:15:55.880Z,6.30
2023-02-21T23:18:23.040Z,6.30
2023-02-21T23:20:52.623Z,6.30
2023-02-21T23:23:19.264Z,6.20
2023-02-21T23:25:46.720Z,6.20
2023-02-21T23:28:16.332Z,6.10
2023-02-21T23:30:42.992Z,6.10
2023-02-21T23:33:09.594Z,6.10
2023-02-21T23:35:36.118Z,6.10
2023-02-21T23:38:02.611Z,6.10
2023-02-21T23:40:32.212Z,6.20
2023-02-21T23:42:58.688Z,6.20
2023-02-21T23:45:25.219Z,6.10
2023-02-21T23:47:52.812Z,6.10
2023-02-21T23:50:19.359Z,6.10
2023-02-21T23:52:46.447Z,6.10
2023-02-21T23:55:13.523Z,6.00
2023-02-21T23:57:43.252Z,6.00
